Time;durP1;ratioP1;P1;durP2;ratioP2;P2;SDS_P1;SDS_P2;PMS_P1;PMS_P2;Temp;Humidity;BMP_temperature;BMP_pressure;BME280_temperature;BME280_humidity;BME280_pressure;Samples;Min_cycle;Max_cycle;Signal;HPM_P1;HPM_P2
2022/03/31 00:00:43;;;;;;;;;;;;;;;22.46;36.42;94097.16;2039436;29;1630;-63
2022/03/31 00:01:45;;;;;;;;;;;;;;;22.45;36.57;94103.56;2033148;29;1164;-63
2022/03/31 00:02:47;;;;;;;;;;;;;;;22.45;36.51;94103.56;2033012;29;1452;-64
2022/03/31 00:03:48;;;;;;;;;;;;;;;22.43;36.66;94092.31;2037463;29;1556;-64
2022/03/31 00:04:50;;;;;;;;;;;;;;;22.44;36.70;94104.63;2035267;29;2019;-66
2022/03/31 00:05:51;;;;;;;;;;;;;;;22.45;36.42;94111.59;2040791;29;1498;-66
2022/03/31 00:06:53;;;;;;;;;;;;;;;22.45;36.21;94110.78;2038282;29;1661;-62
2022/03/31 00:07:57;;;;;;;;;;;;;;;22.44;36.02;94104.63;2037733;29;1511;-63
2022/03/31 00:08:58;;;;;;;;;;;;;;;22.45;36.31;94094.72;2039687;29;1672;-65
2022/03/31 00:10:00;;;;;;;;;;;;;;;22.44;36.73;94088.56;2040498;29;1015;-63
2022/03/31 00:11:02;;;;;;;;;;;;;;;22.45;36.35;94084.00;2039583;29;1870;-64
2022/03/31 00:12:04;;;;;;;;;;;;;;;22.45;36.24;94087.53;2039726;29;1845;-63
2022/03/31 00:13:07;;;;;;;;;;;;;;;22.46;36.85;94096.34;2039609;29;1513;-62
2022/03/31 00:14:08;;;;;;;;;;;;;;;22.46;36.46;94099.03;2041079;29;1083;-64
2022/03/31 00:15:10;;;;;;;;;;;;;;;22.47;36.45;94104.13;2039648;29;1825;-65
2022/03/31 00:16:11;;;;;;;;;;;;;;;22.46;36.63;94097.16;2035404;29;1418;-64
2022/03/31 00:17:13;;;;;;;;;;;;;;;22.46;36.76;94091.81;2040809;29;1521;-63
2022/03/31 00:18:15;;;;;;;;;;;;;;;22.46;37.15;94102.50;2039774;29;1506;-62
2022/03/31 00:19:17;;;;;;;;;;;;;;;22.46;36.59;94097.16;2037897;29;1662;-62
2022/03/31 00:20:19;;;;;;;;;;;;;;;22.47;37.04;94108.66;2034867;29;1568;-66
2022/03/31 00:21:20;;;;;;;;;;;;;;;22.57;37.29;94103.47;2040610;29;1715;-66
2022/03/31 00:22:22;;;;;;;;;;;;;;;22.64;36.39;94092.59;2047983;29;1704;-67
2022/03/31 00:23:24;;;;;;;;;;;;;;;22.66;36.84;94091.28;2040206;29;1034;-65
2022/03/31 00:24:25;;;;;;;;;;;;;;;22.70;36.16;94086.22;2034663;29;1918;-66
2022/03/31 00:25:27;;;;;;;;;;;;;;;22.71;36.52;94101.28;2033314;29;1062;-68
2022/03/31 00:26:29;;;;;;;;;;;;;;;22.72;36.24;94106.38;2032412;29;1547;-67
2022/03/31 00:27:30;;;;;;;;;;;;;;;22.72;36.24;94111.75;2031095;29;1109;-69
2022/03/31 00:28:33;;;;;;;;;;;;;;;22.73;36.00;94116.03;2033242;29;1113;-66
2022/03/31 00:29:35;;;;;;;;;;;;;;;22.74;36.46;94109.63;2041880;29;1495;-65
2022/03/31 00:30:36;;;;;;;;;;;;;;;22.75;36.41;94095.19;2047456;29;1616;-69
2022/03/31 00:31:39;;;;;;;;;;;;;;;22.74;36.23;94092.75;2048192;29;1156;-68
2022/03/31 00:32:41;;;;;;;;;;;;;;;22.75;36.11;94083.66;2046888;29;1469;-66
2022/03/31 00:33:42;;;;;;;;;;;;;;;22.74;36.22;94082.06;2033275;29;1071;-66
2022/03/31 00:34:44;;;;;;;;;;;;;;;22.76;36.43;94066.53;2033309;29;1006;-65
2022/03/31 00:35:45;;;;;;;;;;;;;;;22.75;36.31;94070.28;2033152;29;1066;-66
2022/03/31 00:36:47;;;;;;;;;;;;;;;22.78;36.00;94088.53;2037618;29;1516;-65
2022/03/31 00:37:48;;;;;;;;;;;;;;;22.79;36.57;94092.81;2035586;29;1503;-67
2022/03/31 00:40:12;;;;;;;;;;;;;;;22.81;36.09;94090.69;2041195;29;1069;-66
2022/03/31 00:41:13;;;;;;;;;;;;;;;22.79;36.21;94084.78;2040150;29;1624;-66
2022/03/31 00:42:16;;;;;;;;;;;;;;;22.82;36.25;94075.44;2034741;29;983;-67
2022/03/31 00:43:17;;;;;;;;;;;;;;;22.79;36.60;94066.84;2040079;29;1489;-67
2022/03/31 00:44:19;;;;;;;;;;;;;;;22.83;36.66;94080.56;2041097;29;1021;-66
2022/03/31 00:45:20;;;;;;;;;;;;;;;22.83;36.65;94067.16;2040681;29;1981;-66
2022/03/31 00:46:22;;;;;;;;;;;;;;;22.84;35.75;94071.44;2040491;29;1509;-66
2022/03/31 00:47:24;;;;;;;;;;;;;;;22.85;36.12;94064.22;2039907;29;1427;-66
2022/03/31 00:48:26;;;;;;;;;;;;;;;22.84;36.25;94054.56;2039077;29;1684;-68
2022/03/31 00:49:28;;;;;;;;;;;;;;;22.82;36.46;94052.13;2028758;29;1656;-66
2022/03/31 00:50:31;;;;;;;;;;;;;;;22.78;36.42;94057.19;2033461;29;1728;-67
2022/03/31 00:51:32;;;;;;;;;;;;;;;22.78;36.33;94051.03;2037317;29;1670;-67
2022/03/31 00:52:34;;;;;;;;;;;;;;;22.71;36.55;94031.66;2040202;29;1511;-66
2022/03/31 00:53:38;;;;;;;;;;;;;;;22.78;36.46;94034.97;2040626;29;1495;-66
2022/03/31 00:54:41;;;;;;;;;;;;;;;22.78;36.07;94037.63;2041357;29;1036;-67
2022/03/31 00:55:44;;;;;;;;;;;;;;;22.77;36.38;94052.09;2040859;29;1201;-69
2022/03/31 00:56:48;;;;;;;;;;;;;;;22.78;36.15;94064.41;2039888;29;1729;-66
2022/03/31 00:57:55;;;;;;;;;;;;;;;22.77;35.92;94060.13;2034021;29;1079;-66
2022/03/31 00:58:57;;;;;;;;;;;;;;;22.77;36.33;94060.13;2041597;29;1286;-66
2022/03/31 00:59:59;;;;;;;;;;;;;;;22.76;36.50;94075.38;2037142;29;1073;-68
2022/03/31 01:01:00;;;;;;;;;;;;;;;22.75;36.43;94073.75;2041610;29;1100;-66
2022/03/31 01:02:03;;;;;;;;;;;;;;;22.74;36.35;94063.31;2041079;29;1584;-66
2022/03/31 01:03:04;;;;;;;;;;;;;;;22.76;36.47;94071.88;2034825;29;1492;-68
2022/03/31 01:04:06;;;;;;;;;;;;;;;22.76;36.56;94047.78;2041275;29;1601;-67
2022/03/31 01:05:08;;;;;;;;;;;;;;;22.75;36.55;94049.66;2042111;29;1915;-66
2022/03/31 01:06:10;;;;;;;;;;;;;;;22.74;36.48;94044.56;2038959;29;1657;-71
2022/03/31 01:07:11;;;;;;;;;;;;;;;22.73;36.86;94045.59;2040880;29;1583;-67
2022/03/31 01:08:13;;;;;;;;;;;;;;;22.73;36.26;94049.09;2042234;29;1124;-66
2022/03/31 01:09:15;;;;;;;;;;;;;;;22.73;36.27;94046.41;2041465;29;1243;-66
2022/03/31 01:10:16;;;;;;;;;;;;;;;22.74;36.29;94044.56;2041668;29;1700;-67
2022/03/31 01:11:19;;;;;;;;;;;;;;;22.73;36.56;94059.00;2037297;29;1494;-66
2022/03/31 01:12:22;;;;;;;;;;;;;;;22.72;36.47;94057.38;2042235;29;1007;-67
2022/03/31 01:13:24;;;;;;;;;;;;;;;22.73;36.60;94061.66;2041908;29;886;-65
2022/03/31 01:14:25;;;;;;;;;;;;;;;22.72;36.45;94038.63;2041638;29;1185;-66
2022/03/31 01:15:27;;;;;;;;;;;;;;;22.73;36.81;94032.22;2041211;29;1778;-68
2022/03/31 01:16:30;;;;;;;;;;;;;;;22.75;37.00;94040.81;2037508;29;1737;-62
2022/03/31 01:17:35;;;;;;;;;;;;;;;22.68;36.76;94043.66;2038963;29;1598;-68
2022/03/31 01:18:37;;;;;;;;;;;;;;;22.66;36.77;94039.59;2040409;29;1506;-61
2022/03/31 01:19:38;;;;;;;;;;;;;;;22.64;36.81;94028.31;2034909;29;1624;-64
2022/03/31 01:20:40;;;;;;;;;;;;;;;22.62;36.75;94025.06;2035326;29;1792;-62
2022/03/31 01:21:43;;;;;;;;;;;;;;;22.60;36.83;94021.84;2037861;29;1044;-66
2022/03/31 01:22:45;;;;;;;;;;;;;;;22.58;37.17;94014.88;2041574;29;1264;-62
2022/03/31 01:23:47;;;;;;;;;;;;;;;22.57;37.00;93999.06;2041742;29;1003;-60
2022/03/31 01:24:49;;;;;;;;;;;;;;;22.56;36.88;94006.28;2041764;29;1023;-62
2022/03/31 01:25:50;;;;;;;;;;;;;;;22.57;36.68;94012.44;2041854;29;1985;-65
2022/03/31 01:26:52;;;;;;;;;;;;;;;22.56;36.72;94030.38;2041558;29;1021;-65
2022/03/31 01:27:53;;;;;;;;;;;;;;;22.57;36.86;94034.69;2039792;29;1655;-64
2022/03/31 01:28:55;;;;;;;;;;;;;;;22.56;37.23;94043.78;2042308;29;1081;-61
2022/03/31 01:29:56;;;;;;;;;;;;;;;22.56;36.94;94014.31;2041448;29;1506;-64
2022/03/31 01:30:59;;;;;;;;;;;;;;;22.55;37.06;94003.84;2041476;29;1665;-62
2022/03/31 01:32:01;;;;;;;;;;;;;;;22.56;37.21;94010.81;2034345;29;1184;-61
2022/03/31 01:33:02;;;;;;;;;;;;;;;22.55;37.43;93993.94;2040200;28;1691;-62
2022/03/31 01:34:05;;;;;;;;;;;;;;;22.50;37.66;93988.53;2041637;29;1046;-61
2022/03/31 01:35:07;;;;;;;;;;;;;;;22.53;36.97;94000.59;2033806;29;1071;-61
2022/03/31 01:36:08;;;;;;;;;;;;;;;22.54;37.53;93997.69;2033932;29;1027;-62
2022/03/31 01:37:10;;;;;;;;;;;;;;;22.53;37.00;94003.28;2033441;29;1023;-62
2022/03/31 01:38:12;;;;;;;;;;;;;;;22.56;37.05;94017.00;2033771;29;1068;-61
2022/03/31 01:39:14;;;;;;;;;;;;;;;22.53;37.17;94020.16;2034141;29;1101;-64
2022/03/31 01:40:15;;;;;;;;;;;;;;;22.54;37.45;94016.44;2033768;29;1064;-62
2022/03/31 01:41:17;;;;;;;;;;;;;;;22.52;37.28;93991.78;2038029;29;1558;-61
2022/03/31 01:42:18;;;;;;;;;;;;;;;22.53;37.35;94009.44;2041207;29;1459;-61
2022/03/31 01:43:21;;;;;;;;;;;;;;;22.52;37.20;94007.84;2039595;29;1547;-63
2022/03/31 01:44:22;;;;;;;;;;;;;;;22.52;37.40;94021.22;2033730;29;1458;-61
2022/03/31 01:45:24;;;;;;;;;;;;;;;22.52;37.50;94026.56;2042258;29;1989;-61
2022/03/31 01:46:25;;;;;;;;;;;;;;;22.52;37.43;94037.28;2040748;29;1654;-65
2022/03/31 01:47:27;;;;;;;;;;;;;;;22.52;37.42;94042.63;2040883;29;1566;-61
2022/03/31 01:48:29;;;;;;;;;;;;;;;22.53;37.27;94040.75;2042333;29;1089;-63
2022/03/31 01:49:31;;;;;;;;;;;;;;;22.52;37.01;94029.25;2040419;29;1729;-63
2022/03/31 01:50:32;;;;;;;;;;;;;;;22.52;37.65;94015.88;2040921;29;1535;-62
2022/03/31 01:51:34;;;;;;;;;;;;;;;22.52;37.07;94012.38;2039962;29;1531;-62
2022/03/31 01:52:36;;;;;;;;;;;;;;;22.44;37.57;94008.25;2042155;29;1058;-61
2022/03/31 01:53:38;;;;;;;;;;;;;;;22.52;37.44;94028.44;2042021;29;1164;-63
2022/03/31 01:54:41;;;;;;;;;;;;;;;22.53;37.42;94038.88;2038823;29;1112;-66
2022/03/31 01:55:42;;;;;;;;;;;;;;;22.51;37.27;94016.94;2039022;29;1581;-61
2022/03/31 01:56:44;;;;;;;;;;;;;;;22.52;37.34;94020.41;2034417;29;1826;-62
2022/03/31 01:57:46;;;;;;;;;;;;;;;22.50;37.57;94017.16;2041255;29;1100;-62
2022/03/31 01:58:47;;;;;;;;;;;;;;;22.51;37.92;94013.44;2041919;29;1039;-62
2022/03/31 01:59:49;;;;;;;;;;;;;;;22.51;37.48;94008.09;2042049;29;961;-64
2022/03/31 02:00:50;;;;;;;;;;;;;;;22.51;37.23;94002.75;2037627;29;1592;-63
2022/03/31 02:01:52;;;;;;;;;;;;;;;22.51;37.55;93994.72;2042258;29;1026;-64
2022/03/31 02:02:54;;;;;;;;;;;;;;;22.50;37.52;93996.56;2041230;29;1493;-61
2022/03/31 02:03:55;;;;;;;;;;;;;;;22.50;37.58;94001.91;2034975;29;1151;-62
2022/03/31 02:04:57;;;;;;;;;;;;;;;22.51;37.40;94008.09;2034071;29;1105;-63
2022/03/31 02:05:59;;;;;;;;;;;;;;;22.51;37.63;94006.22;2029681;29;2041;-62
2022/03/31 02:07:00;;;;;;;;;;;;;;;22.51;37.80;94005.41;2040959;29;1977;-62
2022/03/31 02:08:02;;;;;;;;;;;;;;;22.51;37.89;94008.09;2041694;29;1013;-64
2022/03/31 02:09:04;;;;;;;;;;;;;;;22.51;37.81;94014.25;2041880;29;1032;-62
2022/03/31 02:10:10;;;;;;;;;;;;;;;22.51;37.56;94008.91;2040775;29;1521;-62
2022/03/31 02:11:12;;;;;;;;;;;;;;;22.51;37.74;94002.75;2038109;29;1560;-64
2022/03/31 02:12:13;;;;;;;;;;;;;;;22.51;37.55;93998.19;2034023;29;1057;-62
2022/03/31 02:13:15;;;;;;;;;;;;;;;22.52;37.38;93999.00;2034402;29;1051;-61
2022/03/31 02:14:17;;;;;;;;;;;;;;;22.52;37.01;93999.00;2033760;29;1024;-61
2022/03/31 02:15:21;;;;;;;;;;;;;;;22.51;37.74;93995.50;2034847;29;1608;-63
2022/03/31 02:16:23;;;;;;;;;;;;;;;22.51;37.25;93992.84;2033695;29;1016;-61
2022/03/31 02:17:24;;;;;;;;;;;;;;;22.51;37.48;93992.84;2034688;29;1497;-61
2022/03/31 02:18:26;;;;;;;;;;;;;;;22.51;37.46;94006.22;2041865;29;2113;-62
2022/03/31 02:19:27;;;;;;;;;;;;;;;22.50;37.49;94004.59;2041827;29;1018;-60
2022/03/31 02:20:30;;;;;;;;;;;;;;;22.51;37.53;94008.09;2041585;29;1355;-64
2022/03/31 02:21:32;;;;;;;;;;;;;;;22.51;37.90;94008.91;2040509;29;1136;-66
2022/03/31 02:22:34;;;;;;;;;;;;;;;22.51;37.78;94014.25;2041297;29;1063;-63
2022/03/31 02:23:36;;;;;;;;;;;;;;;22.51;37.85;94010.78;2041784;29;1159;-63
2022/03/31 02:24:38;;;;;;;;;;;;;;;22.51;37.53;94008.91;2038289;29;1825;-63
2022/03/31 02:25:40;;;;;;;;;;;;;;;22.50;37.54;94007.25;2037864;29;1978;-63
2022/03/31 02:26:42;;;;;;;;;;;;;;;22.51;37.85;93998.19;2041076;29;1140;-62
2022/03/31 02:27:43;;;;;;;;;;;;;;;22.49;37.26;93989.59;2038514;29;1000;-64
2022/03/31 02:28:45;;;;;;;;;;;;;;;22.51;37.94;93984.00;2039673;29;1105;-63
2022/03/31 02:29:46;;;;;;;;;;;;;;;22.50;37.64;93991.19;2041060;29;1513;-64
2022/03/31 02:30:48;;;;;;;;;;;;;;;22.50;37.45;93996.56;2041195;29;1465;-63
2022/03/31 02:31:50;;;;;;;;;;;;;;;22.49;37.77;93997.63;2041543;29;1152;-62
2022/03/31 02:32:51;;;;;;;;;;;;;;;22.50;37.69;94001.91;2041629;29;1521;-62
2022/03/31 02:33:53;;;;;;;;;;;;;;;22.51;37.64;93994.72;2041132;29;1188;-62
2022/03/31 02:34:55;;;;;;;;;;;;;;;22.49;37.61;93989.59;2040993;29;1037;-61
2022/03/31 02:35:56;;;;;;;;;;;;;;;22.50;37.92;93988.53;2041212;29;1117;-62
2022/03/31 02:36:58;;;;;;;;;;;;;;;22.50;37.56;93983.16;2040531;29;1666;-62
2022/03/31 02:38:00;;;;;;;;;;;;;;;22.50;37.85;93985.84;2041758;29;1041;-68
2022/03/31 02:39:01;;;;;;;;;;;;;;;22.50;37.51;93983.16;2034531;29;1549;-64
2022/03/31 02:40:04;;;;;;;;;;;;;;;22.50;37.83;93983.16;2033551;29;1711;-64
2022/03/31 02:41:06;;;;;;;;;;;;;;;22.50;37.65;93980.50;2033781;29;993;-66
2022/03/31 02:42:07;;;;;;;;;;;;;;;22.50;37.99;93972.47;2033313;29;1418;-64
2022/03/31 02:43:11;;;;;;;;;;;;;;;22.51;37.82;93981.31;2033812;29;1050;-64
2022/03/31 02:44:12;;;;;;;;;;;;;;;22.50;37.71;93988.53;2033466;29;1160;-65
2022/03/31 02:45:14;;;;;;;;;;;;;;;22.51;37.45;93986.69;2033981;29;1478;-66
2022/03/31 02:46:16;;;;;;;;;;;;;;;22.51;37.80;93982.13;2041386;29;1907;-67
2022/03/31 02:47:17;;;;;;;;;;;;;;;22.51;37.78;93979.44;2039951;29;1022;-63
2022/03/31 02:48:19;;;;;;;;;;;;;;;22.51;38.01;93976.78;2033897;29;1033;-63
2022/03/31 02:49:20;;;;;;;;;;;;;;;22.52;37.65;93977.59;2035743;29;1576;-64
2022/03/31 02:50:22;;;;;;;;;;;;;;;22.51;37.58;93990.16;2034570;29;1707;-64
2022/03/31 02:51:24;;;;;;;;;;;;;;;22.51;37.92;93979.44;2032750;29;1168;-64
2022/03/31 02:52:25;;;;;;;;;;;;;;;22.52;38.16;93972.22;2033596;29;1051;-63
2022/03/31 02:56:08;;;;;;;;;;;;;;;22.51;38.24;93965.25;2041452;29;1498;-64
2022/03/31 02:57:09;;;;;;;;;;;;;;;22.51;38.03;93967.94;2041331;29;1022;-65
2022/03/31 02:58:11;;;;;;;;;;;;;;;22.52;37.54;93967.69;2041308;29;1671;-63
2022/03/31 02:59:13;;;;;;;;;;;;;;;22.51;37.90;93976.78;2041667;29;1246;-63
2022/03/31 03:00:15;;;;;;;;;;;;;;;22.51;37.98;93982.13;2040590;29;1492;-66
2022/03/31 03:01:16;;;;;;;;;;;;;;;22.52;38.19;93972.22;2036500;29;1131;-61
2022/03/31 03:02:18;;;;;;;;;;;;;;;22.51;37.71;93979.44;2040548;29;1664;-61
2022/03/31 03:03:20;;;;;;;;;;;;;;;22.34;31.86;93992.09;2039053;29;1687;-64
2022/03/31 03:04:22;;;;;;;;;;;;;;;20.48;29.31;93985.66;2040545;29;1645;-66
2022/03/31 03:05:23;;;;;;;;;;;;;;;19.64;30.82;93976.09;2039235;29;1556;-60
2022/03/31 03:06:25;;;;;;;;;;;;;;;18.93;31.38;93961.81;2033481;29;1914;-61
2022/03/31 03:07:26;;;;;;;;;;;;;;;18.77;31.28;93952.59;2033283;29;2258;-62
2022/03/31 03:08:31;;;;;;;;;;;;;;;18.74;31.20;93954.91;2032955;29;985;-61
2022/03/31 03:09:32;;;;;;;;;;;;;;;19.05;31.17;93948.53;2032884;29;1163;-62
2022/03/31 03:10:34;;;;;;;;;;;;;;;18.96;30.50;93949.91;2033304;29;1515;-62
2022/03/31 03:11:35;;;;;;;;;;;;;;;18.96;31.25;93949.91;2040403;29;1615;-61
2022/03/31 03:12:37;;;;;;;;;;;;;;;18.89;31.08;93954.50;2036380;29;1160;-59
2022/03/31 03:13:38;;;;;;;;;;;;;;;18.85;30.49;93954.13;2041267;29;989;-62
2022/03/31 03:14:40;;;;;;;;;;;;;;;18.70;31.15;93956.41;2041459;29;1052;-60
2022/03/31 03:15:42;;;;;;;;;;;;;;;18.71;30.93;93958.81;2040878;29;1484;-60
2022/03/31 03:16:43;;;;;;;;;;;;;;;18.33;30.67;93961.75;2040541;29;1553;-59
2022/03/31 03:17:46;;;;;;;;;;;;;;;18.43;30.96;93958.56;2039584;29;1521;-61
2022/03/31 03:18:48;;;;;;;;;;;;;;;18.18;30.96;93961.28;2040468;29;1678;-61
2022/03/31 03:19:49;;;;;;;;;;;;;;;18.10;30.96;93957.91;2040999;29;1168;-61
2022/03/31 03:20:51;;;;;;;;;;;;;;;18.17;30.69;93957.03;2040033;29;1652;-60
2022/03/31 03:21:52;;;;;;;;;;;;;;;18.21;31.04;93958.19;2038342;29;1701;-60
2022/03/31 03:22:54;;;;;;;;;;;;;;;18.27;30.59;93960.78;2033151;29;1540;-59
2022/03/31 03:23:56;;;;;;;;;;;;;;;18.24;30.69;93961.25;2035105;29;1614;-60
2022/03/31 03:24:58;;;;;;;;;;;;;;;18.25;30.46;93954.88;2032869;29;1503;-59
2022/03/31 03:26:03;;;;;;;;;;;;;;;18.20;30.71;93954.72;2032936;29;1066;-62
2022/03/31 03:27:05;;;;;;;;;;;;;;;18.25;30.56;93962.03;2034629;29;1986;-61
2022/03/31 03:28:08;;;;;;;;;;;;;;;18.20;30.76;93961.91;2033057;29;1677;-63
2022/03/31 03:29:10;;;;;;;;;;;;;;;18.26;30.94;93953.03;2039130;29;1651;-59
2022/03/31 03:30:12;;;;;;;;;;;;;;;18.20;30.94;93960.03;2039835;29;1665;-59
2022/03/31 03:31:13;;;;;;;;;;;;;;;18.15;30.96;93953.75;2041451;29;1078;-59
2022/03/31 03:32:15;;;;;;;;;;;;;;;18.02;30.73;93955.56;2040840;29;1498;-59
2022/03/31 03:33:17;;;;;;;;;;;;;;;17.91;31.12;93950.16;2041135;29;1007;-59
2022/03/31 03:34:19;;;;;;;;;;;;;;;17.96;31.36;93952.97;2036680;29;1000;-59
2022/03/31 03:35:20;;;;;;;;;;;;;;;17.76;31.02;93953.19;2040965;29;969;-59
2022/03/31 03:36:22;;;;;;;;;;;;;;;17.52;31.58;93954.78;2034284;29;1773;-59
2022/03/31 03:37:24;;;;;;;;;;;;;;;17.76;31.75;93953.19;2039631;29;1641;-59
2022/03/31 03:38:25;;;;;;;;;;;;;;;17.85;31.41;93946.53;2040811;29;1105;-59
2022/03/31 03:39:27;;;;;;;;;;;;;;;17.89;31.57;93953.03;2037020;29;1748;-59
2022/03/31 03:40:31;;;;;;;;;;;;;;;17.80;31.24;93943.72;2040286;29;1642;-59
2022/03/31 03:41:33;;;;;;;;;;;;;;;17.81;31.31;93935.53;2040204;29;1721;-60
2022/03/31 03:42:35;;;;;;;;;;;;;;;17.78;31.47;93933.31;2035621;29;1651;-63
2022/03/31 03:43:37;;;;;;;;;;;;;;;17.81;31.25;93930.22;2035037;29;1273;-62
2022/03/31 03:44:38;;;;;;;;;;;;;;;17.79;31.38;93926.16;2042481;29;1609;-58
2022/03/31 03:45:40;;;;;;;;;;;;;;;17.89;31.37;93929.09;2039195;29;1360;-59
2022/03/31 03:46:42;;;;;;;;;;;;;;;17.81;31.46;93932.06;2048875;28;1994;-61
2022/03/31 03:47:45;;;;;;;;;;;;;;;17.85;31.52;93928.75;2044404;28;1175;-61
2022/03/31 03:48:46;;;;;;;;;;;;;;;18.18;32.70;93924.06;2038621;29;1099;-61
2022/03/31 03:49:48;;;;;;;;;;;;;;;18.47;30.38;93927.84;2038595;29;1446;-62
2022/03/31 03:50:50;;;;;;;;;;;;;;;17.96;30.80;93923.75;2040860;29;1873;-58
2022/03/31 03:51:51;;;;;;;;;;;;;;;17.84;31.03;93931.59;2040139;29;1179;-59
2022/03/31 03:53:03;;;;;;;;;;;;;;;18.18;31.11;93940.88;2039482;29;2326;-62
2022/03/31 03:54:05;;;;;;;;;;;;;;;17.98;31.14;93946.41;2040044;29;1163;-59
2022/03/31 03:55:07;;;;;;;;;;;;;;;18.17;31.31;93949.84;2039845;29;1667;-60
2022/03/31 03:56:08;;;;;;;;;;;;;;;18.48;30.99;93951.53;2027916;29;1100;-61
2022/03/31 03:57:10;;;;;;;;;;;;;;;18.47;30.63;93944.59;2032213;29;1480;-62
2022/03/31 03:58:12;;;;;;;;;;;;;;;18.46;30.46;93940.28;2035855;29;1635;-60
2022/03/31 03:59:14;;;;;;;;;;;;;;;18.40;30.06;93937.72;2038448;29;1542;-60
2022/03/31 04:00:15;;;;;;;;;;;;;;;18.28;30.30;93951.78;2040436;29;1175;-63
2022/03/31 04:01:19;;;;;;;;;;;;;;;18.25;31.00;93944.25;2040544;29;969;-59
2022/03/31 04:02:21;;;;;;;;;;;;;;;18.05;30.77;93946.31;2040698;29;1486;-66
2022/03/31 04:03:22;;;;;;;;;;;;;;;17.84;30.84;93947.56;2040019;29;1037;-61
2022/03/31 04:04:25;;;;;;;;;;;;;;;17.80;31.08;93943.72;2039960;29;1220;-64
2022/03/31 04:05:26;;;;;;;;;;;;;;;18.33;30.89;93941.28;2039414;29;1686;-61
2022/03/31 04:06:28;;;;;;;;;;;;;;;18.85;30.91;93934.69;2036862;29;1705;-60
2022/03/31 04:07:29;;;;;;;;;;;;;;;19.26;30.49;93936.50;2028111;29;1946;-60
2022/03/31 04:08:31;;;;;;;;;;;;;;;19.57;30.15;93935.41;2035328;29;1421;-61
2022/03/31 04:09:32;;;;;;;;;;;;;;;19.83;30.22;93944.81;2039686;29;1153;-61
2022/03/31 04:10:34;;;;;;;;;;;;;;;20.04;29.84;93943.41;2034096;29;1497;-61
2022/03/31 04:11:36;;;;;;;;;;;;;;;20.21;29.96;93953.34;2036882;29;1584;-61
2022/03/31 04:12:39;;;;;;;;;;;;;;;20.34;29.97;93948.56;2032534;29;1441;-60
2022/03/31 04:13:40;;;;;;;;;;;;;;;20.46;29.92;93953.06;2033085;29;1502;-62
2022/03/31 04:14:42;;;;;;;;;;;;;;;20.55;29.75;93949.00;2040228;29;1113;-59
2022/03/31 04:15:43;;;;;;;;;;;;;;;20.63;29.92;93953.97;2038866;29;1535;-59
2022/03/31 04:16:45;;;;;;;;;;;;;;;20.67;29.81;93965.78;2038496;29;1642;-59
2022/03/31 04:17:47;;;;;;;;;;;;;;;20.70;29.81;93973.31;2035509;29;1794;-63
2022/03/31 04:18:48;;;;;;;;;;;;;;;20.73;29.84;93972.84;2028068;29;1521;-59
2022/03/31 04:19:50;;;;;;;;;;;;;;;20.77;30.10;93975.81;2039421;29;1602;-63
2022/03/31 04:20:51;;;;;;;;;;;;;;;20.79;29.89;93971.06;2038453;29;1649;-59
2022/03/31 04:21:53;;;;;;;;;;;;;;;20.82;29.97;93973.25;2034122;29;2169;-59
2022/03/31 04:22:55;;;;;;;;;;;;;;;20.84;29.96;93970.38;2037359;29;1691;-61
2022/03/31 04:23:56;;;;;;;;;;;;;;;20.86;30.05;93981.59;2035805;29;1821;-62
2022/03/31 04:24:58;;;;;;;;;;;;;;;20.87;30.17;93992.06;2040310;29;2714;-60
2022/03/31 04:25:59;;;;;;;;;;;;;;;20.89;30.27;94002.50;2040069;29;1015;-60
2022/03/31 04:27:01;;;;;;;;;;;;;;;20.91;30.17;94000.38;2037356;29;1949;-60
2022/03/31 04:28:04;;;;;;;;;;;;;;;20.93;30.12;93993.75;2032916;29;1109;-62
2022/03/31 04:29:08;;;;;;;;;;;;;;;20.94;30.19;93990.06;2030589;29;1051;-61
2022/03/31 04:30:11;;;;;;;;;;;;;;;20.95;30.24;93986.34;2040090;29;1159;-59
2022/03/31 04:31:13;;;;;;;;;;;;;;;20.98;30.26;93979.72;2040644;29;1067;-61
2022/03/31 04:32:14;;;;;;;;;;;;;;;20.99;30.40;93974.13;2041283;29;1247;-59
2022/03/31 04:33:16;;;;;;;;;;;;;;;21.00;30.36;93980.28;2041474;29;1113;-60
2022/03/31 04:34:19;;;;;;;;;;;;;;;21.02;30.24;93976.31;2040928;29;2017;-59
2022/03/31 04:35:21;;;;;;;;;;;;;;;21.05;30.56;93976.88;2042308;29;1117;-59
2022/03/31 04:36:22;;;;;;;;;;;;;;;21.05;30.42;93975.00;2042521;29;1113;-59
2022/03/31 04:37:24;;;;;;;;;;;;;;;21.06;30.53;93986.50;2042357;29;1121;-60
2022/03/31 04:38:26;;;;;;;;;;;;;;;21.08;30.45;93995.09;2040222;29;1160;-61
2022/03/31 04:39:27;;;;;;;;;;;;;;;21.08;30.55;94001.25;2041337;29;1169;-60
2022/03/31 04:40:29;;;;;;;;;;;;;;;21.11;30.59;94006.09;2037543;29;1023;-59
2022/03/31 04:41:30;;;;;;;;;;;;;;;21.11;30.39;94000.75;2041751;29;1133;-59
2022/03/31 04:42:32;;;;;;;;;;;;;;;21.12;30.60;93999.72;2041798;29;1025;-64
2022/03/31 04:43:34;;;;;;;;;;;;;;;21.13;30.61;93992.53;2041397;29;1187;-62
2022/03/31 04:44:38;;;;;;;;;;;;;;;21.14;30.62;93981.63;2042274;29;1103;-61
2022/03/31 04:45:41;;;;;;;;;;;;;;;21.15;30.59;93983.22;2042123;29;1119;-60
2022/03/31 04:46:43;;;;;;;;;;;;;;;21.16;30.68;93998.19;2042342;29;1324;-61
2022/03/31 04:47:45;;;;;;;;;;;;;;;21.16;30.61;93992.84;2042322;29;1960;-61
2022/03/31 04:48:46;;;;;;;;;;;;;;;21.17;30.58;93989.19;2038588;29;1048;-59
2022/03/31 04:49:48;;;;;;;;;;;;;;;21.18;30.78;94011.34;2042184;29;984;-60
2022/03/31 04:50:50;;;;;;;;;;;;;;;21.18;30.74;94006.81;2041571;29;1077;-61
2022/03/31 04:51:51;;;;;;;;;;;;;;;21.19;30.77;93972.91;2039168;29;1603;-58
2022/03/31 04:52:53;;;;;;;;;;;;;;;21.20;30.67;93963.84;2042044;29;1206;-61
2022/03/31 04:53:54;;;;;;;;;;;;;;;21.19;30.71;93948.84;2042067;29;1030;-59
2022/03/31 04:54:56;;;;;;;;;;;;;;;21.20;30.78;93959.31;2042118;29;1173;-59
2022/03/31 04:55:58;;;;;;;;;;;;;;;21.20;30.77;93948.63;2042176;29;1117;-58
2022/03/31 04:56:59;;;;;;;;;;;;;;;21.22;30.86;93954.50;2041478;29;1128;-59
2022/03/31 04:58:01;;;;;;;;;;;;;;;21.22;30.72;93965.19;2042399;29;1283;-59
2022/03/31 04:59:02;;;;;;;;;;;;;;;21.24;30.80;93983.66;2039687;29;1118;-58
2022/03/31 05:00:05;;;;;;;;;;;;;;;21.25;30.98;93974.59;2042413;29;1007;-58
2022/03/31 05:01:06;;;;;;;;;;;;;;;21.26;30.88;93973.56;2041933;29;1120;-59
2022/03/31 05:02:09;;;;;;;;;;;;;;;21.26;30.95;93986.91;2036893;29;1167;-60
2022/03/31 05:03:10;;;;;;;;;;;;;;;21.26;30.88;93984.25;2041109;29;1056;-60
2022/03/31 05:04:12;;;;;;;;;;;;;;;21.28;31.02;93995.47;2040760;29;1087;-63
2022/03/31 05:05:15;;;;;;;;;;;;;;;21.27;31.03;93999.22;2041013;29;1083;-61
2022/03/31 05:06:17;;;;;;;;;;;;;;;21.28;30.87;93992.81;2042010;29;1027;-63
2022/03/31 05:07:19;;;;;;;;;;;;;;;21.30;30.94;93997.94;2041740;29;1938;-58
2022/03/31 05:08:20;;;;;;;;;;;;;;;21.30;30.91;94003.28;2041172;29;1064;-62
2022/03/31 05:09:22;;;;;;;;;;;;;;;21.29;31.14;93982.97;2040119;29;1159;-59
2022/03/31 05:10:24;;;;;;;;;;;;;;;21.30;31.00;94004.06;2041371;29;1164;-59
2022/03/31 05:11:25;;;;;;;;;;;;;;;21.30;31.04;94000.59;2040545;29;1012;-61
2022/03/31 05:12:27;;;;;;;;;;;;;;;21.30;31.13;93971.22;2042257;29;1079;-60
2022/03/31 05:13:28;;;;;;;;;;;;;;;21.31;31.02;93978.97;2037014;29;1531;-59
2022/03/31 05:14:30;;;;;;;;;;;;;;;21.31;30.76;93970.16;2042069;29;1086;-61
2022/03/31 05:15:31;;;;;;;;;;;;;;;21.31;31.14;93978.97;2042151;29;1007;-59
2022/03/31 05:16:35;;;;;;;;;;;;;;;21.32;31.05;93985.16;2042242;29;1140;-60
2022/03/31 05:17:37;;;;;;;;;;;;;;;21.33;31.03;93997.44;2042092;29;1090;-59
2022/03/31 05:18:39;;;;;;;;;;;;;;;21.34;30.97;94021.25;2038105;29;1117;-59
2022/03/31 05:19:41;;;;;;;;;;;;;;;21.34;31.17;94010.56;2041478;29;1148;-61
2022/03/31 05:20:43;;;;;;;;;;;;;;;21.35;31.00;94008.72;2041499;29;1297;-60
2022/03/31 05:21:44;;;;;;;;;;;;;;;21.35;31.04;94006.03;2042077;29;1082;-61
2022/03/31 05:22:46;;;;;;;;;;;;;;;21.35;31.02;93995.34;2041939;29;1183;-63
2022/03/31 05:23:48;;;;;;;;;;;;;;;21.35;31.20;94001.50;2042204;29;1096;-59
2022/03/31 05:24:50;;;;;;;;;;;;;;;21.35;31.08;94012.19;2036816;29;1201;-59
2022/03/31 05:25:52;;;;;;;;;;;;;;;21.37;31.14;94022.63;2042015;29;1018;-60
2022/03/31 05:26:53;;;;;;;;;;;;;;;21.37;31.30;94028.81;2041125;29;1079;-60
2022/03/31 05:27:58;;;;;;;;;;;;;;;21.37;31.19;94031.47;2041403;29;1907;-60
2022/03/31 05:29:00;;;;;;;;;;;;;;;21.38;31.06;94029.59;2038078;29;1059;-58
2022/03/31 05:30:02;;;;;;;;;;;;;;;21.38;30.90;94037.63;2041616;29;1067;-61
2022/03/31 05:31:06;;;;;;;;;;;;;;;21.39;30.99;94042.72;2042018;29;1104;-60